Brive-Souillac

LFSL · Corrèze, Nouvelle-Aquitaine, 法国

罗盘
风向 的 风向 的 风向 到 风向 010° Brive-Souillac 11/29
风: 9 kt, 3 beaufort

2 kt

9 kt
改变
0 ft 1.000 2.000 3.000 4.000 5.000
Cloud Cloud
FEW 3.400
Cloud Cloud Cloud Cloud
SCT 4.300
METAR LFCR 051730Z AUTO 01009KT 340V040 9999 FEW034 SCT043 06/M01 Q1033 NOSIG

METAR Brive-Souillac - LFSL/BVE

Brive-Souillac是,法国中的中型机场。 该机场有一条跑道: 11/29. 该领域的国际民航组织标志是LFSL 它的国际航空运输协会代码是BVE.

这份报告是针对2023年2月5日 18:30, 当地时间在Rodez-Marcillac Airport进行的。

机场观察

风向为010°,速度为9 kt。 风向在340°和040°之间变化。

可见度为10 km 或者更多。

有几云在3.400 ft的高度 和 疏云,零星散落的云朵在4.300 ft的高度。 没有观察到天花板。

温度为6 °C,阵风为1 °C。 露点为-1 °C,相对湿度为61%。 海平面上的气压为1033 hPa (QNH)。

白天

今天,太阳从08:09升起,在18:06降落。 这适用于Brive-Souillac,世界夏令时可能有所不同。 当地时间与世界标准时间之间的时差为+1 小时。 当前,没有夏令时有效。

公司介绍

我们没有关于这个机场的公司信息。

体会

到Vliegles.nl去找飞行课程,跳伞和其他飞行体验。 浏览页面,了解Brive-Souillac附近所有可用的活动。 你也可以使用搜索功能来寻找你所在地附近的特定飞行课程、跳伞或其他飞行体验。

跑道

Id 标题 侧风 逆风 侧风 %
11/29 115°-295° 9 kt 2 kt 97 %

逆风成分最大的方向会被突出显示,并用于横风计算。 这并不一定意味着这个方向在使用。

乌云

3.400 ft FEW 几云
4.300 ft SCT 疏云,零星散落的云朵

温度 & 天气

温度 6 °C
露点 -1 °C
相对湿度 61%
风寒 1 °C
Kp-index 1 (0-9)

白天

日出
08:03 (13:09)
中午
13:04
日落
18:04

小工具

你想在你的网站上有一个关于Brive-Souillac的当前航空天气(METAR)的小部件吗?

显示HTML代码

我们和第三方通过cookies跟踪您在我们网站上的互联网行为。如果你继续,我们认为你同意我们的饼干政策